sensor_id;sensor_type;location;lat;lon;timestamp;P1;durP1;ratioP1;P2;durP2;ratioP2
80101;SDS011;69407;44.966;19.622;2023-07-20T00:00:00;20.52;;;7.32;;
80101;SDS011;69407;44.966;19.622;2023-07-20T00:02:26;16.40;;;6.90;;
80101;SDS011;69407;44.966;19.622;2023-07-20T00:04:51;19.08;;;6.72;;
80101;SDS011;69407;44.966;19.622;2023-07-20T00:07:16;19.70;;;6.68;;
80101;SDS011;69407;44.966;19.622;2023-07-20T00:09:41;21.17;;;5.00;;
80101;SDS011;69407;44.966;19.622;2023-07-20T00:12:07;23.17;;;7.03;;
80101;SDS011;69407;44.966;19.622;2023-07-20T00:14:32;16.80;;;6.85;;
80101;SDS011;69407;44.966;19.622;2023-07-20T00:16:58;18.10;;;7.38;;
80101;SDS011;69407;44.966;19.622;2023-07-20T00:19:24;20.15;;;7.95;;
80101;SDS011;69407;44.966;19.622;2023-07-20T00:21:49;31.48;;;9.73;;
80101;SDS011;69407;44.966;19.622;2023-07-20T00:24:14;44.33;;;20.67;;
80101;SDS011;69407;44.966;19.622;2023-07-20T00:26:40;82.33;;;26.17;;
80101;SDS011;69407;44.966;19.622;2023-07-20T00:29:05;83.90;;;27.80;;
80101;SDS011;69407;44.966;19.622;2023-07-20T00:31:30;99.13;;;35.25;;
80101;SDS011;69407;44.966;19.622;2023-07-20T00:33:56;98.30;;;35.10;;
80101;SDS011;69407;44.966;19.622;2023-07-20T00:36:21;97.20;;;35.00;;
80101;SDS011;69407;44.966;19.622;2023-07-20T00:38:46;95.57;;;31.43;;
80101;SDS011;69407;44.966;19.622;2023-07-20T00:41:12;84.03;;;31.57;;
80101;SDS011;69407;44.966;19.622;2023-07-20T00:43:38;83.63;;;26.85;;
80101;SDS011;69407;44.966;19.622;2023-07-20T00:46:03;76.47;;;28.40;;
80101;SDS011;69407;44.966;19.622;2023-07-20T00:48:29;71.70;;;27.13;;
80101;SDS011;69407;44.966;19.622;2023-07-20T00:50:54;76.43;;;25.08;;
80101;SDS011;69407;44.966;19.622;2023-07-20T00:53:20;54.40;;;21.95;;
80101;SDS011;69407;44.966;19.622;2023-07-20T00:55:46;54.92;;;21.30;;
80101;SDS011;69407;44.966;19.622;2023-07-20T00:58:11;47.42;;;19.10;;
80101;SDS011;69407;44.966;19.622;2023-07-20T01:00:36;46.60;;;17.23;;
80101;SDS011;69407;44.966;19.622;2023-07-20T01:03:01;41.00;;;15.07;;
80101;SDS011;69407;44.966;19.622;2023-07-20T01:05:33;41.13;;;14.85;;
80101;SDS011;69407;44.966;19.622;2023-07-20T01:08:07;32.45;;;13.35;;
80101;SDS011;69407;44.966;19.622;2023-07-20T01:10:40;31.58;;;12.10;;
80101;SDS011;69407;44.966;19.622;2023-07-20T01:13:06;25.67;;;9.98;;
80101;SDS011;69407;44.966;19.622;2023-07-20T01:15:35;21.05;;;8.77;;
80101;SDS011;69407;44.966;19.622;2023-07-20T01:18:00;18.95;;;7.43;;
80101;SDS011;69407;44.966;19.622;2023-07-20T01:20:30;17.60;;;6.43;;
80101;SDS011;69407;44.966;19.622;2023-07-20T01:30:55;9.13;;;4.03;;
80101;SDS011;69407;44.966;19.622;2023-07-20T01:33:24;7.63;;;4.22;;
80101;SDS011;69407;44.966;19.622;2023-07-20T01:35:53;12.07;;;3.60;;
80101;SDS011;69407;44.966;19.622;2023-07-20T01:38:19;7.22;;;3.58;;
80101;SDS011;69407;44.966;19.622;2023-07-20T01:40:45;7.85;;;3.65;;
80101;SDS011;69407;44.966;19.622;2023-07-20T01:43:11;6.30;;;3.25;;
80101;SDS011;69407;44.966;19.622;2023-07-20T01:45:36;7.55;;;3.38;;
80101;SDS011;69407;44.966;19.622;2023-07-20T01:48:02;7.22;;;3.67;;
80101;SDS011;69407;44.966;19.622;2023-07-20T01:50:27;10.95;;;3.63;;
80101;SDS011;69407;44.966;19.622;2023-07-20T01:52:53;5.43;;;2.83;;
80101;SDS011;69407;44.966;19.622;2023-07-20T01:55:19;6.65;;;3.20;;
80101;SDS011;69407;44.966;19.622;2023-07-20T01:57:44;8.23;;;3.10;;
80101;SDS011;69407;44.966;19.622;2023-07-20T02:00:09;4.77;;;2.50;;
80101;SDS011;69407;44.966;19.622;2023-07-20T02:02:35;13.18;;;3.92;;
80101;SDS011;69407;44.966;19.622;2023-07-20T02:05:00;6.90;;;2.88;;
80101;SDS011;69407;44.966;19.622;2023-07-20T02:07:25;8.53;;;3.53;;
80101;SDS011;69407;44.966;19.622;2023-07-20T02:09:51;8.65;;;3.08;;
80101;SDS011;69407;44.966;19.622;2023-07-20T02:12:16;8.27;;;2.95;;
80101;SDS011;69407;44.966;19.622;2023-07-20T02:14:41;5.80;;;2.38;;
80101;SDS011;69407;44.966;19.622;2023-07-20T02:17:07;8.43;;;3.22;;
80101;SDS011;69407;44.966;19.622;2023-07-20T02:19:32;6.85;;;2.85;;
80101;SDS011;69407;44.966;19.622;2023-07-20T02:21:57;7.28;;;3.30;;
80101;SDS011;69407;44.966;19.622;2023-07-20T02:24:23;10.18;;;3.92;;
80101;SDS011;69407;44.966;19.622;2023-07-20T02:26:48;7.60;;;3.00;;
80101;SDS011;69407;44.966;19.622;2023-07-20T02:29:13;11.20;;;3.72;;
80101;SDS011;69407;44.966;19.622;2023-07-20T02:31:39;6.68;;;3.40;;
80101;SDS011;69407;44.966;19.622;2023-07-20T02:34:07;7.97;;;3.20;;
80101;SDS011;69407;44.966;19.622;2023-07-20T02:36:33;8.35;;;4.10;;
80101;SDS011;69407;44.966;19.622;2023-07-20T02:38:59;8.07;;;3.72;;
80101;SDS011;69407;44.966;19.622;2023-07-20T02:41:24;8.73;;;4.33;;
80101;SDS011;69407;44.966;19.622;2023-07-20T02:43:49;12.35;;;3.72;;
80101;SDS011;69407;44.966;19.622;2023-07-20T02:46:15;13.07;;;5.18;;
80101;SDS011;69407;44.966;19.622;2023-07-20T02:48:40;11.70;;;5.22;;
80101;SDS011;69407;44.966;19.622;2023-07-20T02:51:05;17.67;;;6.35;;
80101;SDS011;69407;44.966;19.622;2023-07-20T02:53:32;12.88;;;6.05;;
80101;SDS011;69407;44.966;19.622;2023-07-20T02:55:57;13.05;;;5.78;;
80101;SDS011;69407;44.966;19.622;2023-07-20T02:58:23;11.17;;;5.53;;
80101;SDS011;69407;44.966;19.622;2023-07-20T03:00:48;11.25;;;5.30;;
80101;SDS011;69407;44.966;19.622;2023-07-20T03:03:13;9.83;;;4.33;;
80101;SDS011;69407;44.966;19.622;2023-07-20T03:05:40;13.87;;;4.87;;
80101;SDS011;69407;44.966;19.622;2023-07-20T03:08:05;11.70;;;3.95;;
80101;SDS011;69407;44.966;19.622;2023-07-20T03:10:31;10.15;;;3.92;;
80101;SDS011;69407;44.966;19.622;2023-07-20T03:12:56;11.88;;;5.28;;
80101;SDS011;69407;44.966;19.622;2023-07-20T03:15:22;10.80;;;4.90;;
80101;SDS011;69407;44.966;19.622;2023-07-20T03:17:47;8.83;;;4.67;;
80101;SDS011;69407;44.966;19.622;2023-07-20T03:20:12;13.00;;;5.17;;
80101;SDS011;69407;44.966;19.622;2023-07-20T03:22:38;7.88;;;4.50;;
80101;SDS011;69407;44.966;19.622;2023-07-20T03:25:03;8.68;;;4.95;;
80101;SDS011;69407;44.966;19.622;2023-07-20T03:27:29;8.55;;;4.65;;
80101;SDS011;69407;44.966;19.622;2023-07-20T03:29:54;10.63;;;4.82;;
80101;SDS011;69407;44.966;19.622;2023-07-20T03:32:20;7.18;;;3.92;;
80101;SDS011;69407;44.966;19.622;2023-07-20T03:34:45;8.30;;;4.60;;
80101;SDS011;69407;44.966;19.622;2023-07-20T03:37:10;10.20;;;4.27;;
80101;SDS011;69407;44.966;19.622;2023-07-20T03:39:36;10.85;;;3.92;;
80101;SDS011;69407;44.966;19.622;2023-07-20T03:42:01;11.40;;;4.22;;
80101;SDS011;69407;44.966;19.622;2023-07-20T03:44:26;10.93;;;4.07;;
80101;SDS011;69407;44.966;19.622;2023-07-20T03:46:52;10.73;;;4.03;;
80101;SDS011;69407;44.966;19.622;2023-07-20T03:49:17;9.50;;;4.13;;
80101;SDS011;69407;44.966;19.622;2023-07-20T03:51:43;9.52;;;4.18;;
80101;SDS011;69407;44.966;19.622;2023-07-20T03:54:08;12.52;;;3.85;;
80101;SDS011;69407;44.966;19.622;2023-07-20T03:56:34;7.82;;;3.90;;
80101;SDS011;69407;44.966;19.622;2023-07-20T03:59:00;10.93;;;3.90;;
80101;SDS011;69407;44.966;19.622;2023-07-20T04:01:25;9.13;;;4.40;;
80101;SDS011;69407;44.966;19.622;2023-07-20T04:03:50;10.13;;;3.60;;
80101;SDS011;69407;44.966;19.622;2023-07-20T04:06:16;7.47;;;3.43;;
80101;SDS011;69407;44.966;19.622;2023-07-20T04:08:42;7.20;;;2.95;;
80101;SDS011;69407;44.966;19.622;2023-07-20T04:11:08;10.20;;;3.90;;
80101;SDS011;69407;44.966;19.622;2023-07-20T04:13:33;9.45;;;4.13;;
80101;SDS011;69407;44.966;19.622;2023-07-20T04:15:59;7.32;;;4.35;;
80101;SDS011;69407;44.966;19.622;2023-07-20T04:18:24;5.70;;;3.38;;
80101;SDS011;69407;44.966;19.622;2023-07-20T04:20:50;9.70;;;3.22;;
80101;SDS011;69407;44.966;19.622;2023-07-20T04:23:15;7.60;;;3.97;;
80101;SDS011;69407;44.966;19.622;2023-07-20T04:25:41;10.68;;;4.47;;
80101;SDS011;69407;44.966;19.622;2023-07-20T04:28:07;8.25;;;4.40;;
80101;SDS011;69407;44.966;19.622;2023-07-20T04:30:35;9.57;;;4.20;;
80101;SDS011;69407;44.966;19.622;2023-07-20T04:33:01;11.57;;;3.90;;
80101;SDS011;69407;44.966;19.622;2023-07-20T04:35:46;11.77;;;4.10;;
80101;SDS011;69407;44.966;19.622;2023-07-20T04:38:12;7.13;;;3.60;;
80101;SDS011;69407;44.966;19.622;2023-07-20T04:40:37;11.80;;;4.30;;
80101;SDS011;69407;44.966;19.622;2023-07-20T04:43:02;8.17;;;4.27;;
80101;SDS011;69407;44.966;19.622;2023-07-20T04:45:28;9.23;;;3.97;;
80101;SDS011;69407;44.966;19.622;2023-07-20T04:47:53;8.90;;;4.97;;
80101;SDS011;69407;44.966;19.622;2023-07-20T04:50:18;7.93;;;4.40;;
80101;SDS011;69407;44.966;19.622;2023-07-20T04:52:44;7.82;;;3.63;;
80101;SDS011;69407;44.966;19.622;2023-07-20T04:55:11;8.77;;;3.60;;
80101;SDS011;69407;44.966;19.622;2023-07-20T04:57:36;11.13;;;3.95;;
80101;SDS011;69407;44.966;19.622;2023-07-20T05:00:02;6.28;;;3.55;;
80101;SDS011;69407;44.966;19.622;2023-07-20T05:02:28;6.75;;;4.10;;
80101;SDS011;69407;44.966;19.622;2023-07-20T05:04:54;9.23;;;4.28;;
80101;SDS011;69407;44.966;19.622;2023-07-20T05:07:19;10.23;;;4.05;;
80101;SDS011;69407;44.966;19.622;2023-07-20T05:09:44;7.43;;;3.87;;
80101;SDS011;69407;44.966;19.622;2023-07-20T05:12:10;6.38;;;4.05;;
80101;SDS011;69407;44.966;19.622;2023-07-20T05:14:37;11.32;;;4.22;;
80101;SDS011;69407;44.966;19.622;2023-07-20T05:17:02;8.55;;;4.82;;
80101;SDS011;69407;44.966;19.622;2023-07-20T05:19:27;12.50;;;5.00;;
80101;SDS011;69407;44.966;19.622;2023-07-20T05:21:53;9.82;;;4.20;;
80101;SDS011;69407;44.966;19.622;2023-07-20T05:24:18;7.63;;;4.97;;
80101;SDS011;69407;44.966;19.622;2023-07-20T05:26:43;15.60;;;4.07;;
80101;SDS011;69407;44.966;19.622;2023-07-20T05:29:08;14.77;;;5.50;;
80101;SDS011;69407;44.966;19.622;2023-07-20T05:31:34;8.90;;;3.53;;
80101;SDS011;69407;44.966;19.622;2023-07-20T05:33:59;9.50;;;4.65;;
80101;SDS011;69407;44.966;19.622;2023-07-20T05:36:24;7.80;;;3.72;;
80101;SDS011;69407;44.966;19.622;2023-07-20T05:38:50;6.95;;;3.50;;
80101;SDS011;69407;44.966;19.622;2023-07-20T05:41:15;12.00;;;4.88;;
80101;SDS011;69407;44.966;19.622;2023-07-20T05:43:40;8.07;;;4.20;;
80101;SDS011;69407;44.966;19.622;2023-07-20T05:46:07;7.97;;;4.40;;
80101;SDS011;69407;44.966;19.622;2023-07-20T05:48:32;8.98;;;4.30;;
80101;SDS011;69407;44.966;19.622;2023-07-20T05:50:57;10.38;;;5.15;;
80101;SDS011;69407;44.966;19.622;2023-07-20T05:53:23;6.95;;;4.10;;
80101;SDS011;69407;44.966;19.622;2023-07-20T05:55:52;9.18;;;4.13;;
80101;SDS011;69407;44.966;19.622;2023-07-20T05:58:17;8.57;;;4.90;;
80101;SDS011;69407;44.966;19.622;2023-07-20T06:00:42;8.00;;;4.17;;
80101;SDS011;69407;44.966;19.622;2023-07-20T06:03:08;9.10;;;4.63;;
80101;SDS011;69407;44.966;19.622;2023-07-20T06:05:33;10.48;;;4.60;;
80101;SDS011;69407;44.966;19.622;2023-07-20T06:07:58;8.88;;;4.63;;
80101;SDS011;69407;44.966;19.622;2023-07-20T06:10:25;8.30;;;4.50;;
80101;SDS011;69407;44.966;19.622;2023-07-20T06:12:51;7.78;;;5.22;;
80101;SDS011;69407;44.966;19.622;2023-07-20T06:15:27;8.93;;;4.43;;
80101;SDS011;69407;44.966;19.622;2023-07-20T06:17:53;8.07;;;4.75;;
80101;SDS011;69407;44.966;19.622;2023-07-20T06:20:18;7.55;;;3.97;;
80101;SDS011;69407;44.966;19.622;2023-07-20T06:22:44;9.43;;;5.00;;
80101;SDS011;69407;44.966;19.622;2023-07-20T06:25:09;9.27;;;5.40;;
80101;SDS011;69407;44.966;19.622;2023-07-20T06:27:35;9.45;;;4.60;;
80101;SDS011;69407;44.966;19.622;2023-07-20T06:30:00;10.60;;;4.13;;
80101;SDS011;69407;44.966;19.622;2023-07-20T06:32:25;8.25;;;4.60;;
80101;SDS011;69407;44.966;19.622;2023-07-20T06:34:51;8.13;;;4.22;;
80101;SDS011;69407;44.966;19.622;2023-07-20T06:37:16;7.30;;;3.30;;
80101;SDS011;69407;44.966;19.622;2023-07-20T06:39:41;10.93;;;3.90;;
80101;SDS011;69407;44.966;19.622;2023-07-20T06:42:06;7.07;;;4.00;;
80101;SDS011;69407;44.966;19.622;2023-07-20T06:44:32;9.95;;;4.50;;
80101;SDS011;69407;44.966;19.622;2023-07-20T06:46:57;8.13;;;3.30;;
80101;SDS011;69407;44.966;19.622;2023-07-20T06:49:26;6.47;;;3.20;;
80101;SDS011;69407;44.966;19.622;2023-07-20T06:51:51;10.68;;;3.65;;
80101;SDS011;69407;44.966;19.622;2023-07-20T06:54:17;8.32;;;4.32;;
80101;SDS011;69407;44.966;19.622;2023-07-20T06:56:42;7.75;;;3.97;;
80101;SDS011;69407;44.966;19.622;2023-07-20T06:59:07;6.20;;;4.00;;
80101;SDS011;69407;44.966;19.622;2023-07-20T07:01:33;12.30;;;5.00;;
80101;SDS011;69407;44.966;19.622;2023-07-20T07:03:58;7.73;;;3.93;;
80101;SDS011;69407;44.966;19.622;2023-07-20T07:06:23;10.75;;;3.95;;
80101;SDS011;69407;44.966;19.622;2023-07-20T07:08:49;7.90;;;4.32;;
80101;SDS011;69407;44.966;19.622;2023-07-20T07:11:14;6.87;;;4.13;;
80101;SDS011;69407;44.966;19.622;2023-07-20T07:13:39;6.75;;;4.05;;
80101;SDS011;69407;44.966;19.622;2023-07-20T07:16:05;5.93;;;3.10;;
80101;SDS011;69407;44.966;19.622;2023-07-20T07:18:30;6.47;;;3.22;;
80101;SDS011;69407;44.966;19.622;2023-07-20T07:20:55;10.47;;;4.20;;
80101;SDS011;69407;44.966;19.622;2023-07-20T07:23:20;11.52;;;3.47;;
80101;SDS011;69407;44.966;19.622;2023-07-20T07:25:46;5.75;;;3.90;;
80101;SDS011;69407;44.966;19.622;2023-07-20T07:28:11;9.57;;;3.67;;
80101;SDS011;69407;44.966;19.622;2023-07-20T07:30:37;7.10;;;3.83;;
80101;SDS011;69407;44.966;19.622;2023-07-20T07:33:02;6.93;;;3.20;;
80101;SDS011;69407;44.966;19.622;2023-07-20T07:35:28;7.88;;;4.00;;
80101;SDS011;69407;44.966;19.622;2023-07-20T07:37:53;8.38;;;3.72;;
80101;SDS011;69407;44.966;19.622;2023-07-20T07:40:18;5.33;;;2.97;;
80101;SDS011;69407;44.966;19.622;2023-07-20T07:42:43;5.72;;;3.75;;
80101;SDS011;69407;44.966;19.622;2023-07-20T07:45:09;5.53;;;2.83;;
80101;SDS011;69407;44.966;19.622;2023-07-20T07:47:34;9.80;;;3.70;;
80101;SDS011;69407;44.966;19.622;2023-07-20T07:50:00;8.25;;;3.88;;
80101;SDS011;69407;44.966;19.622;2023-07-20T07:52:25;7.73;;;4.00;;
80101;SDS011;69407;44.966;19.622;2023-07-20T07:54:50;5.87;;;3.73;;
80101;SDS011;69407;44.966;19.622;2023-07-20T07:57:16;5.57;;;3.23;;
80101;SDS011;69407;44.966;19.622;2023-07-20T07:59:41;6.32;;;3.15;;
80101;SDS011;69407;44.966;19.622;2023-07-20T08:02:06;5.80;;;3.08;;
80101;SDS011;69407;44.966;19.622;2023-07-20T08:04:31;5.55;;;3.00;;
80101;SDS011;69407;44.966;19.622;2023-07-20T08:06:57;7.55;;;3.30;;
80101;SDS011;69407;44.966;19.622;2023-07-20T08:09:22;7.03;;;3.10;;
80101;SDS011;69407;44.966;19.622;2023-07-20T08:11:48;5.65;;;2.92;;
80101;SDS011;69407;44.966;19.622;2023-07-20T08:14:14;11.20;;;2.33;;
80101;SDS011;69407;44.966;19.622;2023-07-20T08:16:40;6.25;;;3.45;;
80101;SDS011;69407;44.966;19.622;2023-07-20T08:19:05;7.28;;;4.28;;
80101;SDS011;69407;44.966;19.622;2023-07-20T08:21:30;5.50;;;4.88;;
80101;SDS011;69407;44.966;19.622;2023-07-20T08:23:56;6.75;;;4.95;;
80101;SDS011;69407;44.966;19.622;2023-07-20T08:26:22;6.70;;;4.97;;
80101;SDS011;69407;44.966;19.622;2023-07-20T08:28:48;7.00;;;5.53;;
80101;SDS011;69407;44.966;19.622;2023-07-20T08:31:13;9.13;;;4.78;;
80101;SDS011;69407;44.966;19.622;2023-07-20T08:33:38;6.45;;;5.57;;
80101;SDS011;69407;44.966;19.622;2023-07-20T08:36:04;4.88;;;4.03;;
80101;SDS011;69407;44.966;19.622;2023-07-20T08:38:32;5.13;;;2.35;;
80101;SDS011;69407;44.966;19.622;2023-07-20T08:40:58;4.65;;;3.03;;
80101;SDS011;69407;44.966;19.622;2023-07-20T08:43:25;5.78;;;3.08;;
80101;SDS011;69407;44.966;19.622;2023-07-20T08:45:50;5.18;;;3.50;;
80101;SDS011;69407;44.966;19.622;2023-07-20T08:48:16;7.18;;;3.53;;
80101;SDS011;69407;44.966;19.622;2023-07-20T08:50:43;6.35;;;3.60;;
80101;SDS011;69407;44.966;19.622;2023-07-20T08:53:09;6.63;;;3.83;;
80101;SDS011;69407;44.966;19.622;2023-07-20T08:55:35;5.32;;;3.30;;
80101;SDS011;69407;44.966;19.622;2023-07-20T08:58:01;8.55;;;3.50;;
80101;SDS011;69407;44.966;19.622;2023-07-20T09:00:27;3.50;;;2.63;;
80101;SDS011;69407;44.966;19.622;2023-07-20T09:02:55;7.20;;;3.08;;
80101;SDS011;69407;44.966;19.622;2023-07-20T09:05:22;4.97;;;3.22;;
80101;SDS011;69407;44.966;19.622;2023-07-20T09:07:47;4.60;;;2.58;;
80101;SDS011;69407;44.966;19.622;2023-07-20T09:10:13;9.02;;;3.35;;
80101;SDS011;69407;44.966;19.622;2023-07-20T09:12:42;6.45;;;3.47;;
80101;SDS011;69407;44.966;19.622;2023-07-20T09:15:08;6.72;;;3.03;;
80101;SDS011;69407;44.966;19.622;2023-07-20T09:17:33;6.25;;;3.03;;
80101;SDS011;69407;44.966;19.622;2023-07-20T09:20:01;7.85;;;2.95;;
80101;SDS011;69407;44.966;19.622;2023-07-20T09:22:30;5.63;;;3.40;;
80101;SDS011;69407;44.966;19.622;2023-07-20T09:24:56;6.00;;;2.60;;
80101;SDS011;69407;44.966;19.622;2023-07-20T09:27:22;6.15;;;3.17;;
80101;SDS011;69407;44.966;19.622;2023-07-20T09:29:49;3.25;;;2.20;;
80101;SDS011;69407;44.966;19.622;2023-07-20T09:32:17;3.35;;;2.47;;
80101;SDS011;69407;44.966;19.622;2023-07-20T09:34:43;5.60;;;2.88;;
80101;SDS011;69407;44.966;19.622;2023-07-20T09:37:08;5.55;;;2.85;;
80101;SDS011;69407;44.966;19.622;2023-07-20T09:39:41;5.30;;;2.33;;
80101;SDS011;69407;44.966;19.622;2023-07-20T09:42:07;8.02;;;4.03;;
80101;SDS011;69407;44.966;19.622;2023-07-20T09:44:33;6.97;;;2.85;;
80101;SDS011;69407;44.966;19.622;2023-07-20T09:46:59;6.75;;;2.75;;
80101;SDS011;69407;44.966;19.622;2023-07-20T09:49:24;6.53;;;2.75;;
80101;SDS011;69407;44.966;19.622;2023-07-20T09:51:49;7.53;;;2.85;;
80101;SDS011;69407;44.966;19.622;2023-07-20T09:54:15;3.80;;;2.55;;
80101;SDS011;69407;44.966;19.622;2023-07-20T09:56:41;3.38;;;2.30;;
80101;SDS011;69407;44.966;19.622;2023-07-20T09:59:07;5.40;;;2.55;;
80101;SDS011;69407;44.966;19.622;2023-07-20T10:01:33;7.45;;;2.92;;
80101;SDS011;69407;44.966;19.622;2023-07-20T10:03:59;4.10;;;2.67;;
80101;SDS011;69407;44.966;19.622;2023-07-20T10:06:28;4.28;;;2.80;;
80101;SDS011;69407;44.966;19.622;2023-07-20T10:08:54;5.50;;;3.40;;
80101;SDS011;69407;44.966;19.622;2023-07-20T10:11:21;5.95;;;3.58;;
80101;SDS011;69407;44.966;19.622;2023-07-20T10:13:47;7.88;;;3.05;;
80101;SDS011;69407;44.966;19.622;2023-07-20T10:16:26;4.95;;;2.42;;
80101;SDS011;69407;44.966;19.622;2023-07-20T10:19:07;5.72;;;2.67;;
80101;SDS011;69407;44.966;19.622;2023-07-20T10:21:37;10.23;;;3.33;;
80101;SDS011;69407;44.966;19.622;2023-07-20T10:24:05;4.10;;;2.50;;
80101;SDS011;69407;44.966;19.622;2023-07-20T10:26:30;6.75;;;2.58;;
80101;SDS011;69407;44.966;19.622;2023-07-20T10:28:56;8.15;;;2.85;;
80101;SDS011;69407;44.966;19.622;2023-07-20T10:31:22;5.75;;;2.03;;
80101;SDS011;69407;44.966;19.622;2023-07-20T10:33:48;5.28;;;2.38;;
80101;SDS011;69407;44.966;19.622;2023-07-20T10:36:15;7.07;;;2.50;;
80101;SDS011;69407;44.966;19.622;2023-07-20T10:43:44;5.07;;;2.25;;
80101;SDS011;69407;44.966;19.622;2023-07-20T10:46:10;5.32;;;2.67;;
80101;SDS011;69407;44.966;19.622;2023-07-20T10:48:36;4.32;;;2.58;;
80101;SDS011;69407;44.966;19.622;2023-07-20T10:51:21;5.85;;;2.35;;
80101;SDS011;69407;44.966;19.622;2023-07-20T10:53:48;3.67;;;2.30;;
80101;SDS011;69407;44.966;19.622;2023-07-20T10:56:14;5.75;;;3.38;;
80101;SDS011;69407;44.966;19.622;2023-07-20T10:58:40;4.75;;;2.88;;
80101;SDS011;69407;44.966;19.622;2023-07-20T11:01:08;6.18;;;3.28;;
80101;SDS011;69407;44.966;19.622;2023-07-20T11:03:34;3.97;;;2.22;;
80101;SDS011;69407;44.966;19.622;2023-07-20T11:06:03;6.32;;;2.65;;
80101;SDS011;69407;44.966;19.622;2023-07-20T11:08:45;6.82;;;2.70;;
80101;SDS011;69407;44.966;19.622;2023-07-20T11:11:29;5.10;;;3.30;;
80101;SDS011;69407;44.966;19.622;2023-07-20T11:13:55;8.00;;;2.85;;
80101;SDS011;69407;44.966;19.622;2023-07-20T11:16:41;5.60;;;2.50;;
80101;SDS011;69407;44.966;19.622;2023-07-20T11:19:13;5.75;;;3.22;;
80101;SDS011;69407;44.966;19.622;2023-07-20T11:21:43;3.85;;;2.00;;
80101;SDS011;69407;44.966;19.622;2023-07-20T11:24:08;7.22;;;3.72;;
80101;SDS011;69407;44.966;19.622;2023-07-20T11:29:00;3.17;;;2.30;;
80101;SDS011;69407;44.966;19.622;2023-07-20T11:31:26;4.75;;;2.65;;
80101;SDS011;69407;44.966;19.622;2023-07-20T11:33:51;5.83;;;1.63;;
80101;SDS011;69407;44.966;19.622;2023-07-20T11:36:16;5.07;;;2.50;;
80101;SDS011;69407;44.966;19.622;2023-07-20T11:38:41;5.43;;;3.00;;
80101;SDS011;69407;44.966;19.622;2023-07-20T11:41:09;4.68;;;3.20;;
80101;SDS011;69407;44.966;19.622;2023-07-20T11:43:34;4.90;;;2.63;;
80101;SDS011;69407;44.966;19.622;2023-07-20T11:46:04;5.53;;;2.67;;
80101;SDS011;69407;44.966;19.622;2023-07-20T11:48:29;7.05;;;3.17;;
80101;SDS011;69407;44.966;19.622;2023-07-20T11:50:55;7.55;;;3.85;;
80101;SDS011;69407;44.966;19.622;2023-07-20T11:53:20;7.00;;;2.95;;
80101;SDS011;69407;44.966;19.622;2023-07-20T11:55:46;6.38;;;2.85;;
80101;SDS011;69407;44.966;19.622;2023-07-20T11:58:11;3.97;;;2.72;;
80101;SDS011;69407;44.966;19.622;2023-07-20T12:00:38;5.75;;;3.50;;
80101;SDS011;69407;44.966;19.622;2023-07-20T12:03:05;4.57;;;2.97;;
80101;SDS011;69407;44.966;19.622;2023-07-20T12:07:56;5.70;;;2.75;;
80101;SDS011;69407;44.966;19.622;2023-07-20T12:10:25;7.25;;;3.70;;
80101;SDS011;69407;44.966;19.622;2023-07-20T12:12:51;4.32;;;2.88;;
80101;SDS011;69407;44.966;19.622;2023-07-20T12:15:19;5.68;;;3.35;;
80101;SDS011;69407;44.966;19.622;2023-07-20T12:17:45;5.45;;;3.20;;
80101;SDS011;69407;44.966;19.622;2023-07-20T12:20:11;4.18;;;3.08;;
80101;SDS011;69407;44.966;19.622;2023-07-20T12:22:40;4.95;;;3.33;;
80101;SDS011;69407;44.966;19.622;2023-07-20T12:25:06;4.50;;;2.83;;
80101;SDS011;69407;44.966;19.622;2023-07-20T12:27:32;4.75;;;2.72;;
80101;SDS011;69407;44.966;19.622;2023-07-20T12:29:57;5.57;;;2.90;;
80101;SDS011;69407;44.966;19.622;2023-07-20T12:32:23;3.88;;;2.63;;
80101;SDS011;69407;44.966;19.622;2023-07-20T12:34:48;5.07;;;3.10;;
80101;SDS011;69407;44.966;19.622;2023-07-20T12:37:13;4.87;;;3.13;;
80101;SDS011;69407;44.966;19.622;2023-07-20T12:39:39;4.90;;;3.07;;
80101;SDS011;69407;44.966;19.622;2023-07-20T12:42:05;4.72;;;3.05;;
80101;SDS011;69407;44.966;19.622;2023-07-20T12:44:31;5.10;;;4.00;;
80101;SDS011;69407;44.966;19.622;2023-07-20T12:46:56;7.03;;;3.77;;
80101;SDS011;69407;44.966;19.622;2023-07-20T12:49:23;4.47;;;3.10;;
80101;SDS011;69407;44.966;19.622;2023-07-20T12:51:48;12.03;;;3.43;;
80101;SDS011;69407;44.966;19.622;2023-07-20T12:54:13;7.43;;;3.43;;
80101;SDS011;69407;44.966;19.622;2023-07-20T12:56:38;6.18;;;3.47;;
80101;SDS011;69407;44.966;19.622;2023-07-20T12:59:04;5.63;;;3.10;;
80101;SDS011;69407;44.966;19.622;2023-07-20T13:01:30;4.85;;;3.40;;
80101;SDS011;69407;44.966;19.622;2023-07-20T13:03:56;7.43;;;4.03;;
80101;SDS011;69407;44.966;19.622;2023-07-20T13:06:22;7.93;;;3.38;;
80101;SDS011;69407;44.966;19.622;2023-07-20T13:08:48;5.85;;;3.38;;
80101;SDS011;69407;44.966;19.622;2023-07-20T13:11:13;6.63;;;3.35;;
80101;SDS011;69407;44.966;19.622;2023-07-20T13:13:38;5.47;;;3.60;;
80101;SDS011;69407;44.966;19.622;2023-07-20T13:16:04;5.17;;;3.67;;
80101;SDS011;69407;44.966;19.622;2023-07-20T13:18:29;5.53;;;3.30;;
80101;SDS011;69407;44.966;19.622;2023-07-20T13:20:54;5.53;;;3.73;;
80101;SDS011;69407;44.966;19.622;2023-07-20T13:23:19;5.75;;;3.38;;
80101;SDS011;69407;44.966;19.622;2023-07-20T13:25:45;7.07;;;3.35;;
80101;SDS011;69407;44.966;19.622;2023-07-20T13:28:10;6.80;;;3.00;;
80101;SDS011;69407;44.966;19.622;2023-07-20T13:30:35;4.57;;;3.00;;
80101;SDS011;69407;44.966;19.622;2023-07-20T13:33:01;9.18;;;3.08;;
80101;SDS011;69407;44.966;19.622;2023-07-20T13:35:26;5.70;;;3.83;;
80101;SDS011;69407;44.966;19.622;2023-07-20T13:37:51;6.28;;;3.35;;
80101;SDS011;69407;44.966;19.622;2023-07-20T13:40:17;5.40;;;3.38;;
80101;SDS011;69407;44.966;19.622;2023-07-20T13:42:43;5.65;;;2.78;;
80101;SDS011;69407;44.966;19.622;2023-07-20T13:45:09;4.85;;;3.55;;
80101;SDS011;69407;44.966;19.622;2023-07-20T13:47:34;5.30;;;3.33;;
80101;SDS011;69407;44.966;19.622;2023-07-20T13:50:00;7.22;;;3.25;;
80101;SDS011;69407;44.966;19.622;2023-07-20T13:52:26;6.03;;;3.40;;
80101;SDS011;69407;44.966;19.622;2023-07-20T13:54:51;10.50;;;3.83;;
80101;SDS011;69407;44.966;19.622;2023-07-20T13:57:16;9.07;;;4.10;;
80101;SDS011;69407;44.966;19.622;2023-07-20T13:59:42;5.28;;;2.90;;
80101;SDS011;69407;44.966;19.622;2023-07-20T14:02:08;5.32;;;3.20;;
80101;SDS011;69407;44.966;19.622;2023-07-20T14:04:33;5.22;;;3.85;;
80101;SDS011;69407;44.966;19.622;2023-07-20T14:06:58;6.32;;;3.50;;
80101;SDS011;69407;44.966;19.622;2023-07-20T14:09:40;5.32;;;3.85;;
80101;SDS011;69407;44.966;19.622;2023-07-20T14:12:06;5.88;;;3.53;;
80101;SDS011;69407;44.966;19.622;2023-07-20T14:14:31;5.50;;;3.35;;
80101;SDS011;69407;44.966;19.622;2023-07-20T14:16:57;4.32;;;2.92;;
80101;SDS011;69407;44.966;19.622;2023-07-20T14:19:22;11.23;;;3.15;;
80101;SDS011;69407;44.966;19.622;2023-07-20T14:21:48;6.07;;;3.58;;
80101;SDS011;69407;44.966;19.622;2023-07-20T14:24:13;6.13;;;3.38;;
80101;SDS011;69407;44.966;19.622;2023-07-20T14:26:38;5.20;;;3.50;;
80101;SDS011;69407;44.966;19.622;2023-07-20T14:29:04;8.65;;;3.55;;
80101;SDS011;69407;44.966;19.622;2023-07-20T14:31:29;4.27;;;2.97;;
80101;SDS011;69407;44.966;19.622;2023-07-20T14:33:54;12.00;;;3.20;;
80101;SDS011;69407;44.966;19.622;2023-07-20T14:36:20;3.77;;;3.20;;
80101;SDS011;69407;44.966;19.622;2023-07-20T14:38:45;7.60;;;3.00;;
80101;SDS011;69407;44.966;19.622;2023-07-20T14:41:11;6.15;;;4.10;;